sensor_id;sensor_type;location;lat;lon;timestamp;pressure;altitude;pressure_sealevel;temperature;humidity
14689;BME280;7432;48.728;9.154;2023-09-19T00:01:08;145790.13;;;16.31;99.26
14689;BME280;7432;48.728;9.154;2023-09-19T00:03:36;145799.81;;;16.35;98.83
14689;BME280;7432;48.728;9.154;2023-09-19T00:06:02;145787.69;;;16.30;99.20
14689;BME280;7432;48.728;9.154;2023-09-19T00:08:29;145781.59;;;16.27;99.47
14689;BME280;7432;48.728;9.154;2023-09-19T00:10:56;145767.00;;;16.21;99.86
14689;BME280;7432;48.728;9.154;2023-09-19T00:13:27;145764.56;;;16.20;99.98
14689;BME280;7432;48.728;9.154;2023-09-19T00:15:53;145753.63;;;16.16;100.00
14689;BME280;7432;48.728;9.154;2023-09-19T00:18:21;145764.56;;;16.20;100.00
14689;BME280;7432;48.728;9.154;2023-09-19T00:20:50;145765.78;;;16.21;99.68
14689;BME280;7432;48.728;9.154;2023-09-19T00:23:17;145758.47;;;16.18;100.00
14689;BME280;7432;48.728;9.154;2023-09-19T00:25:44;145754.84;;;16.16;99.81
14689;BME280;7432;48.728;9.154;2023-09-19T00:28:10;145759.72;;;16.18;99.51
14689;BME280;7432;48.728;9.154;2023-09-19T00:30:37;145759.72;;;16.18;99.25
14689;BME280;7432;48.728;9.154;2023-09-19T00:33:04;145759.72;;;16.18;99.98
14689;BME280;7432;48.728;9.154;2023-09-19T00:35:31;145753.63;;;16.16;99.68
14689;BME280;7432;48.728;9.154;2023-09-19T00:37:59;145745.13;;;16.12;99.66
14689;BME280;7432;48.728;9.154;2023-09-19T00:40:26;145740.25;;;16.10;99.88
14689;BME280;7432;48.728;9.154;2023-09-19T00:42:57;145731.75;;;16.07;99.84
14689;BME280;7432;48.728;9.154;2023-09-19T00:45:25;145745.13;;;16.12;99.58
14689;BME280;7432;48.728;9.154;2023-09-19T00:47:51;145745.13;;;16.12;99.52
14689;BME280;7432;48.728;9.154;2023-09-19T00:50:19;145736.63;;;16.09;99.15
14689;BME280;7432;48.728;9.154;2023-09-19T00:52:46;145740.25;;;16.10;99.13
14689;BME280;7432;48.728;9.154;2023-09-19T00:55:17;145743.94;;;16.12;99.40
14689;BME280;7432;48.728;9.154;2023-09-19T00:57:45;145750.00;;;16.14;98.97
14689;BME280;7432;48.728;9.154;2023-09-19T01:00:12;145768.22;;;16.22;98.89
14689;BME280;7432;48.728;9.154;2023-09-19T01:02:41;145764.56;;;16.20;98.74
14689;BME280;7432;48.728;9.154;2023-09-19T01:05:08;145750.00;;;16.14;98.94
14689;BME280;7432;48.728;9.154;2023-09-19T01:07:36;145737.88;;;16.09;99.02
14689;BME280;7432;48.728;9.154;2023-09-19T01:10:04;145740.25;;;16.10;98.95
14689;BME280;7432;48.728;9.154;2023-09-19T01:12:45;145757.31;;;16.17;98.72
14689;BME280;7432;48.728;9.154;2023-09-19T01:15:21;145746.34;;;16.13;99.02
14689;BME280;7432;48.728;9.154;2023-09-19T01:17:59;145759.72;;;16.18;98.64
14689;BME280;7432;48.728;9.154;2023-09-19T01:20:33;145745.13;;;16.12;98.49
14689;BME280;7432;48.728;9.154;2023-09-19T01:23:14;145753.63;;;16.16;98.04
14689;BME280;7432;48.728;9.154;2023-09-19T01:26:05;145751.22;;;16.15;97.78
14689;BME280;7432;48.728;9.154;2023-09-19T01:28:43;145760.94;;;16.19;97.15
14689;BME280;7432;48.728;9.154;2023-09-19T01:31:14;145754.84;;;16.16;97.29
14689;BME280;7432;48.728;9.154;2023-09-19T01:33:58;145757.31;;;16.17;96.90
14689;BME280;7432;48.728;9.154;2023-09-19T01:36:28;145745.13;;;16.12;96.92
14689;BME280;7432;48.728;9.154;2023-09-19T01:38:55;145748.78;;;16.14;97.10
14689;BME280;7432;48.728;9.154;2023-09-19T01:41:27;145759.72;;;16.18;96.96
14689;BME280;7432;48.728;9.154;2023-09-19T01:43:58;145767.00;;;16.21;96.87
14689;BME280;7432;48.728;9.154;2023-09-19T01:46:34;145765.78;;;16.21;96.78
14689;BME280;7432;48.728;9.154;2023-09-19T01:49:07;145784.06;;;16.28;95.54
14689;BME280;7432;48.728;9.154;2023-09-19T01:51:40;145785.22;;;16.29;95.31
14689;BME280;7432;48.728;9.154;2023-09-19T01:54:12;145787.69;;;16.30;95.38
14689;BME280;7432;48.728;9.154;2023-09-19T01:56:44;145775.53;;;16.25;95.64
14689;BME280;7432;48.728;9.154;2023-09-19T01:59:13;145777.94;;;16.26;95.15
14689;BME280;7432;48.728;9.154;2023-09-19T02:01:45;145765.78;;;16.21;95.23
14689;BME280;7432;48.728;9.154;2023-09-19T02:04:12;145784.06;;;16.28;94.78
14689;BME280;7432;48.728;9.154;2023-09-19T02:06:39;145769.44;;;16.22;94.54
14689;BME280;7432;48.728;9.154;2023-09-19T02:09:06;145774.31;;;16.24;94.43
14689;BME280;7432;48.728;9.154;2023-09-19T02:11:34;145763.38;;;16.20;94.75
14689;BME280;7432;48.728;9.154;2023-09-19T02:14:00;145775.53;;;16.25;94.17
14689;BME280;7432;48.728;9.154;2023-09-19T02:16:27;145762.16;;;16.19;94.37
14689;BME280;7432;48.728;9.154;2023-09-19T02:18:55;145754.84;;;16.16;94.63
14689;BME280;7432;48.728;9.154;2023-09-19T02:21:22;145751.22;;;16.15;94.90
14689;BME280;7432;48.728;9.154;2023-09-19T02:23:48;145748.78;;;16.14;94.96
14689;BME280;7432;48.728;9.154;2023-09-19T02:26:14;145722.03;;;16.02;95.43
14689;BME280;7432;48.728;9.154;2023-09-19T02:28:41;145719.59;;;16.01;95.55
14689;BME280;7432;48.728;9.154;2023-09-19T02:31:07;145714.75;;;15.99;95.52
14689;BME280;7432;48.728;9.154;2023-09-19T02:33:34;145714.75;;;15.99;95.65
14689;BME280;7432;48.728;9.154;2023-09-19T02:36:03;145709.91;;;15.97;95.94
14689;BME280;7432;48.728;9.154;2023-09-19T02:38:30;145690.47;;;15.89;96.27
14689;BME280;7432;48.728;9.154;2023-09-19T02:40:56;145683.16;;;15.86;96.28
14689;BME280;7432;48.728;9.154;2023-09-19T02:43:23;145685.56;;;15.87;96.41
14689;BME280;7432;48.728;9.154;2023-09-19T02:45:50;145656.44;;;15.75;96.64
14689;BME280;7432;48.728;9.154;2023-09-19T02:48:18;145638.22;;;15.68;97.55
14689;BME280;7432;48.728;9.154;2023-09-19T02:50:45;145634.53;;;15.66;97.73
14689;BME280;7432;48.728;9.154;2023-09-19T02:53:13;145624.84;;;15.62;98.04
14689;BME280;7432;48.728;9.154;2023-09-19T02:55:40;145612.72;;;15.57;98.58
14689;BME280;7432;48.728;9.154;2023-09-19T02:58:07;145626.06;;;15.63;98.10
14689;BME280;7432;48.728;9.154;2023-09-19T03:00:36;145630.91;;;15.65;98.35
14689;BME280;7432;48.728;9.154;2023-09-19T03:03:02;145637.00;;;15.67;98.49
14689;BME280;7432;48.728;9.154;2023-09-19T03:05:31;145644.28;;;15.70;98.37
14689;BME280;7432;48.728;9.154;2023-09-19T03:07:58;145669.78;;;15.81;98.30
14689;BME280;7432;48.728;9.154;2023-09-19T03:10:27;145672.25;;;15.82;98.18
14689;BME280;7432;48.728;9.154;2023-09-19T03:12:54;145685.56;;;15.87;98.21
14689;BME280;7432;48.728;9.154;2023-09-19T03:15:21;145701.38;;;15.94;97.76
14689;BME280;7432;48.728;9.154;2023-09-19T03:17:48;145712.31;;;15.98;97.59
14689;BME280;7432;48.728;9.154;2023-09-19T03:20:15;145720.81;;;16.02;97.36
14689;BME280;7432;48.728;9.154;2023-09-19T03:22:42;145720.81;;;16.02;97.53
14689;BME280;7432;48.728;9.154;2023-09-19T03:25:09;145728.13;;;16.05;97.05
14689;BME280;7432;48.728;9.154;2023-09-19T03:27:38;145720.81;;;16.02;97.26
14689;BME280;7432;48.728;9.154;2023-09-19T03:30:06;145718.38;;;16.01;97.54
14689;BME280;7432;48.728;9.154;2023-09-19T03:32:34;145719.59;;;16.01;97.21
14689;BME280;7432;48.728;9.154;2023-09-19T03:35:00;145720.81;;;16.02;97.59
14689;BME280;7432;48.728;9.154;2023-09-19T03:37:27;145719.59;;;16.01;97.50
14689;BME280;7432;48.728;9.154;2023-09-19T03:39:53;145720.81;;;16.02;97.39
14689;BME280;7432;48.728;9.154;2023-09-19T03:42:20;145724.50;;;16.04;97.54
14689;BME280;7432;48.728;9.154;2023-09-19T03:44:52;145741.50;;;16.11;97.41
14689;BME280;7432;48.728;9.154;2023-09-19T03:47:20;145723.28;;;16.03;97.37
14689;BME280;7432;48.728;9.154;2023-09-19T03:49:46;145723.28;;;16.03;97.48
14689;BME280;7432;48.728;9.154;2023-09-19T03:52:13;145728.13;;;16.05;97.42
14689;BME280;7432;48.728;9.154;2023-09-19T03:54:39;145725.66;;;16.04;97.43
14689;BME280;7432;48.728;9.154;2023-09-19T03:57:06;145718.38;;;16.01;97.67
14689;BME280;7432;48.728;9.154;2023-09-19T03:59:33;145708.69;;;15.97;97.79
14689;BME280;7432;48.728;9.154;2023-09-19T04:02:02;145722.03;;;16.02;97.75
14689;BME280;7432;48.728;9.154;2023-09-19T04:04:29;145725.66;;;16.04;97.81
14689;BME280;7432;48.728;9.154;2023-09-19T04:06:56;145718.38;;;16.01;98.02
14689;BME280;7432;48.728;9.154;2023-09-19T04:09:23;145720.81;;;16.02;97.96
14689;BME280;7432;48.728;9.154;2023-09-19T04:11:49;145712.31;;;15.98;97.95
14689;BME280;7432;48.728;9.154;2023-09-19T04:14:16;145690.47;;;15.89;99.01
14689;BME280;7432;48.728;9.154;2023-09-19T04:16:42;145677.09;;;15.84;99.06
14689;BME280;7432;48.728;9.154;2023-09-19T04:19:10;145656.44;;;15.75;99.66
14689;BME280;7432;48.728;9.154;2023-09-19T04:21:36;145646.69;;;15.71;100.00
14689;BME280;7432;48.728;9.154;2023-09-19T04:24:03;145651.59;;;15.73;99.73
14689;BME280;7432;48.728;9.154;2023-09-19T04:26:30;145661.28;;;15.77;99.64
14689;BME280;7432;48.728;9.154;2023-09-19T04:28:57;145667.34;;;15.80;99.80
14689;BME280;7432;48.728;9.154;2023-09-19T04:31:23;145685.56;;;15.87;99.40
14689;BME280;7432;48.728;9.154;2023-09-19T04:33:49;145683.16;;;15.86;99.44
14689;BME280;7432;48.728;9.154;2023-09-19T04:36:18;145681.94;;;15.86;99.69
14689;BME280;7432;48.728;9.154;2023-09-19T04:38:44;145697.75;;;15.92;99.20
14689;BME280;7432;48.728;9.154;2023-09-19T04:41:10;145700.16;;;15.93;99.34
14689;BME280;7432;48.728;9.154;2023-09-19T04:43:38;145703.81;;;15.95;99.03
14689;BME280;7432;48.728;9.154;2023-09-19T04:46:04;145705.06;;;15.95;99.24
14689;BME280;7432;48.728;9.154;2023-09-19T04:48:31;145708.69;;;15.97;99.54
14689;BME280;7432;48.728;9.154;2023-09-19T04:50:59;145713.53;;;15.99;98.79
14689;BME280;7432;48.728;9.154;2023-09-19T04:53:27;145711.13;;;15.98;98.86
14689;BME280;7432;48.728;9.154;2023-09-19T04:55:53;145714.75;;;15.99;98.97
14689;BME280;7432;48.728;9.154;2023-09-19T04:58:20;145722.03;;;16.02;99.43
14689;BME280;7432;48.728;9.154;2023-09-19T05:00:47;145725.66;;;16.04;99.28
14689;BME280;7432;48.728;9.154;2023-09-19T05:03:13;145725.66;;;16.04;99.54
14689;BME280;7432;48.728;9.154;2023-09-19T05:05:40;145723.28;;;16.03;100.00
14689;BME280;7432;48.728;9.154;2023-09-19T05:08:07;145718.38;;;16.01;100.00
14689;BME280;7432;48.728;9.154;2023-09-19T05:10:36;145714.75;;;15.99;100.00
14689;BME280;7432;48.728;9.154;2023-09-19T05:13:04;145697.75;;;15.92;100.00
14689;BME280;7432;48.728;9.154;2023-09-19T05:15:32;145692.84;;;15.90;100.00
14689;BME280;7432;48.728;9.154;2023-09-19T05:17:59;145697.75;;;15.92;100.00
14689;BME280;7432;48.728;9.154;2023-09-19T05:20:25;145669.78;;;15.81;100.00
14689;BME280;7432;48.728;9.154;2023-09-19T05:23:01;145672.25;;;15.82;100.00
14689;BME280;7432;48.728;9.154;2023-09-19T05:25:28;145635.78;;;15.67;100.00
14689;BME280;7432;48.728;9.154;2023-09-19T05:27:57;145643.06;;;15.70;100.00
14689;BME280;7432;48.728;9.154;2023-09-19T05:30:25;145633.31;;;15.66;100.00
14689;BME280;7432;48.728;9.154;2023-09-19T05:32:54;145618.78;;;15.60;100.00
14689;BME280;7432;48.728;9.154;2023-09-19T05:35:21;145610.25;;;15.56;100.00
14689;BME280;7432;48.728;9.154;2023-09-19T05:37:47;145616.34;;;15.59;100.00
14689;BME280;7432;48.728;9.154;2023-09-19T05:40:16;145615.13;;;15.58;100.00
14689;BME280;7432;48.728;9.154;2023-09-19T05:42:42;145613.88;;;15.58;100.00
14689;BME280;7432;48.728;9.154;2023-09-19T05:45:10;145611.47;;;15.57;100.00
14689;BME280;7432;48.728;9.154;2023-09-19T05:47:38;145616.34;;;15.59;100.00
14689;BME280;7432;48.728;9.154;2023-09-19T05:50:06;145649.13;;;15.72;100.00
14689;BME280;7432;48.728;9.154;2023-09-19T05:52:34;145666.13;;;15.79;100.00
14689;BME280;7432;48.728;9.154;2023-09-19T05:55:01;145675.88;;;15.83;100.00
14689;BME280;7432;48.728;9.154;2023-09-19T05:57:30;145673.41;;;15.82;100.00
14689;BME280;7432;48.728;9.154;2023-09-19T05:59:56;145666.13;;;15.79;100.00
14689;BME280;7432;48.728;9.154;2023-09-19T06:02:24;145664.94;;;15.79;100.00
14689;BME280;7432;48.728;9.154;2023-09-19T06:04:54;145644.28;;;15.70;100.00
14689;BME280;7432;48.728;9.154;2023-09-19T06:07:20;145618.78;;;15.60;100.00
14689;BME280;7432;48.728;9.154;2023-09-19T06:09:47;145622.41;;;15.61;100.00
14689;BME280;7432;48.728;9.154;2023-09-19T06:12:13;145609.03;;;15.56;100.00
14689;BME280;7432;48.728;9.154;2023-09-19T06:14:42;145596.91;;;15.51;100.00
14689;BME280;7432;48.728;9.154;2023-09-19T06:17:08;145571.34;;;15.40;100.00
14689;BME280;7432;48.728;9.154;2023-09-19T06:19:37;145556.75;;;15.34;100.00
14689;BME280;7432;48.728;9.154;2023-09-19T06:22:03;145539.78;;;15.27;100.00
14689;BME280;7432;48.728;9.154;2023-09-19T06:24:30;145534.88;;;15.25;100.00
14689;BME280;7432;48.728;9.154;2023-09-19T06:26:56;145522.75;;;15.20;100.00
14689;BME280;7432;48.728;9.154;2023-09-19T06:29:22;145511.84;;;15.15;100.00
14689;BME280;7432;48.728;9.154;2023-09-19T06:31:50;145499.69;;;15.10;100.00
14689;BME280;7432;48.728;9.154;2023-09-19T06:34:16;145517.91;;;15.18;100.00
14689;BME280;7432;48.728;9.154;2023-09-19T06:36:44;145536.09;;;15.25;100.00
14689;BME280;7432;48.728;9.154;2023-09-19T06:39:11;145538.56;;;15.26;100.00
14689;BME280;7432;48.728;9.154;2023-09-19T06:41:38;145549.47;;;15.31;100.00
14689;BME280;7432;48.728;9.154;2023-09-19T06:44:06;145565.28;;;15.37;100.00
14689;BME280;7432;48.728;9.154;2023-09-19T06:46:34;145578.66;;;15.43;100.00
14689;BME280;7432;48.728;9.154;2023-09-19T06:49:04;145630.91;;;15.65;100.00
14689;BME280;7432;48.728;9.154;2023-09-19T06:51:31;145678.31;;;15.84;100.00
14689;BME280;7432;48.728;9.154;2023-09-19T06:53:59;145719.59;;;16.01;100.00
14689;BME280;7432;48.728;9.154;2023-09-19T06:56:25;145791.31;;;16.31;100.00
14689;BME280;7432;48.728;9.154;2023-09-19T06:58:51;145833.88;;;16.49;99.88
14689;BME280;7432;48.728;9.154;2023-09-19T07:01:18;145884.97;;;16.70;97.38
14689;BME280;7432;48.728;9.154;2023-09-19T07:03:44;145939.69;;;16.93;97.15
14689;BME280;7432;48.728;9.154;2023-09-19T07:06:11;145984.69;;;17.11;96.00
14689;BME280;7432;48.728;9.154;2023-09-19T07:08:38;146027.28;;;17.29;95.96
14689;BME280;7432;48.728;9.154;2023-09-19T07:11:06;146064.97;;;17.45;94.35
14689;BME280;7432;48.728;9.154;2023-09-19T07:13:32;146096.66;;;17.58;93.43
14689;BME280;7432;48.728;9.154;2023-09-19T07:15:59;146146.56;;;17.79;93.33
14689;BME280;7432;48.728;9.154;2023-09-19T07:18:25;146176.97;;;17.91;90.72
14689;BME280;7432;48.728;9.154;2023-09-19T07:20:56;146207.38;;;18.04;90.24
14689;BME280;7432;48.728;9.154;2023-09-19T07:23:26;146226.84;;;18.12;88.24
14689;BME280;7432;48.728;9.154;2023-09-19T07:25:56;146214.69;;;18.07;89.29
14689;BME280;7432;48.728;9.154;2023-09-19T07:28:24;146268.25;;;18.29;88.32
14689;BME280;7432;48.728;9.154;2023-09-19T07:30:51;146268.25;;;18.29;88.43
14689;BME280;7432;48.728;9.154;2023-09-19T07:33:17;146293.81;;;18.40;87.34
14689;BME280;7432;48.728;9.154;2023-09-19T07:35:45;146319.41;;;18.50;87.96
14689;BME280;7432;48.728;9.154;2023-09-19T07:38:12;146398.56;;;18.83;87.14
14689;BME280;7432;48.728;9.154;2023-09-19T07:40:38;146432.66;;;18.97;85.79
14689;BME280;7432;48.728;9.154;2023-09-19T07:43:05;146513.06;;;19.30;84.74
14689;BME280;7432;48.728;9.154;2023-09-19T07:45:33;146586.22;;;19.61;83.19
14689;BME280;7432;48.728;9.154;2023-09-19T07:48:01;146717.81;;;20.15;79.29
14689;BME280;7432;48.728;9.154;2023-09-19T07:50:33;146866.59;;;20.77;77.88
14689;BME280;7432;48.728;9.154;2023-09-19T07:53:01;147052.06;;;21.53;72.70
14689;BME280;7432;48.728;9.154;2023-09-19T07:55:30;147224.19;;;22.24;71.48
14689;BME280;7432;48.728;9.154;2023-09-19T07:57:59;147371.97;;;22.85;68.11
14689;BME280;7432;48.728;9.154;2023-09-19T08:00:25;147473.38;;;23.27;66.80
14689;BME280;7432;48.728;9.154;2023-09-19T08:02:53;147677.53;;;24.11;64.34
14689;BME280;7432;48.728;9.154;2023-09-19T08:05:19;147968.59;;;25.31;60.23
14689;BME280;7432;48.728;9.154;2023-09-19T08:07:47;148269.75;;;26.56;56.42
14689;BME280;7432;48.728;9.154;2023-09-19T08:10:15;148628.72;;;28.03;52.70
14689;BME280;7432;48.728;9.154;2023-09-19T08:12:45;148882.50;;;29.08;50.04
14689;BME280;7432;48.728;9.154;2023-09-19T08:15:13;149235.94;;;30.53;47.51
14689;BME280;7432;48.728;9.154;2023-09-19T08:17:39;149393.09;;;31.18;45.74
14689;BME280;7432;48.728;9.154;2023-09-19T08:20:08;149502.44;;;31.62;43.89
14689;BME280;7432;48.728;9.154;2023-09-19T08:22:42;149321.88;;;30.88;42.88
14689;BME280;7432;48.728;9.154;2023-09-19T08:25:08;149185.59;;;30.32;45.08
14689;BME280;7432;48.728;9.154;2023-09-19T08:27:35;149285.06;;;30.73;43.48
14689;BME280;7432;48.728;9.154;2023-09-19T08:30:02;149509.81;;;31.65;42.22
14689;BME280;7432;48.728;9.154;2023-09-19T08:32:29;149496.31;;;31.60;42.43
14689;BME280;7432;48.728;9.154;2023-09-19T08:34:55;149394.34;;;31.18;41.98
14689;BME280;7432;48.728;9.154;2023-09-19T08:37:23;149280.13;;;30.71;41.65
14689;BME280;7432;48.728;9.154;2023-09-19T08:39:49;149336.66;;;30.94;42.08
14689;BME280;7432;48.728;9.154;2023-09-19T08:42:16;149436.09;;;31.35;41.09
14689;BME280;7432;48.728;9.154;2023-09-19T08:44:45;149514.72;;;31.67;40.67
14689;BME280;7432;48.728;9.154;2023-09-19T08:47:15;149670.78;;;32.32;39.29
14689;BME280;7432;48.728;9.154;2023-09-19T08:49:49;149652.38;;;32.24;38.90
14689;BME280;7432;48.728;9.154;2023-09-19T08:52:20;149539.31;;;31.78;40.26
14689;BME280;7432;48.728;9.154;2023-09-19T08:54:51;149615.50;;;32.09;39.29
14689;BME280;7432;48.728;9.154;2023-09-19T08:57:19;149729.81;;;32.56;37.99
14689;BME280;7432;48.728;9.154;2023-09-19T08:59:47;149554.03;;;31.84;38.25
14689;BME280;7432;48.728;9.154;2023-09-19T09:02:16;149649.91;;;32.23;39.02
14689;BME280;7432;48.728;9.154;2023-09-19T09:04:44;149927.72;;;33.37;38.07
14689;BME280;7432;48.728;9.154;2023-09-19T09:07:11;150061.78;;;33.92;37.14
14689;BME280;7432;48.728;9.154;2023-09-19T09:09:38;150475.34;;;35.61;34.01
14689;BME280;7432;48.728;9.154;2023-09-19T09:12:09;150597.28;;;36.11;32.53
14689;BME280;7432;48.728;9.154;2023-09-19T09:14:37;150280.81;;;34.82;32.28
14689;BME280;7432;48.728;9.154;2023-09-19T09:17:04;149676.94;;;32.34;35.70
14689;BME280;7432;48.728;9.154;2023-09-19T09:19:30;149357.53;;;31.03;37.13
14689;BME280;7432;48.728;9.154;2023-09-19T09:22:06;149005.22;;;29.58;39.94
14689;BME280;7432;48.728;9.154;2023-09-19T09:24:32;148827.38;;;28.85;43.10
14689;BME280;7432;48.728;9.154;2023-09-19T09:26:59;148743.94;;;28.51;43.42
14689;BME280;7432;48.728;9.154;2023-09-19T09:29:46;148766.00;;;28.60;43.54
14689;BME280;7432;48.728;9.154;2023-09-19T09:32:19;148601.75;;;27.92;44.25
14689;BME280;7432;48.728;9.154;2023-09-19T09:34:48;148338.31;;;26.84;45.42
14689;BME280;7432;48.728;9.154;2023-09-19T09:37:16;148093.41;;;25.83;48.46
14689;BME280;7432;48.728;9.154;2023-09-19T09:39:49;147864.63;;;24.89;51.65
14689;BME280;7432;48.728;9.154;2023-09-19T09:42:29;147681.16;;;24.13;51.65
14689;BME280;7432;48.728;9.154;2023-09-19T09:45:12;147523.50;;;23.48;53.27
14689;BME280;7432;48.728;9.154;2023-09-19T09:47:43;147486.81;;;23.33;53.25
14689;BME280;7432;48.728;9.154;2023-09-19T09:50:26;147555.25;;;23.61;52.37
14689;BME280;7432;48.728;9.154;2023-09-19T09:53:07;147676.28;;;24.11;51.22
14689;BME280;7432;48.728;9.154;2023-09-19T09:56:00;147742.28;;;24.38;49.71
14689;BME280;7432;48.728;9.154;2023-09-19T09:58:28;147653.03;;;24.01;51.43
14689;BME280;7432;48.728;9.154;2023-09-19T10:00:59;147624.94;;;23.90;51.10
14689;BME280;7432;48.728;9.154;2023-09-19T10:03:33;147472.16;;;23.27;54.29
14689;BME280;7432;48.728;9.154;2023-09-19T10:06:04;147403.72;;;22.98;52.70
14689;BME280;7432;48.728;9.154;2023-09-19T10:08:57;147393.97;;;22.94;52.02
14689;BME280;7432;48.728;9.154;2023-09-19T10:11:28;147434.28;;;23.11;50.91
14689;BME280;7432;48.728;9.154;2023-09-19T10:13:55;147346.34;;;22.75;51.25
14689;BME280;7432;48.728;9.154;2023-09-19T10:16:24;147437.94;;;23.13;50.27
14689;BME280;7432;48.728;9.154;2023-09-19T10:18:53;147418.41;;;23.05;49.99
14689;BME280;7432;48.728;9.154;2023-09-19T10:21:23;147375.63;;;22.87;50.65
14689;BME280;7432;48.728;9.154;2023-09-19T10:23:53;147386.66;;;22.91;50.20
14689;BME280;7432;48.728;9.154;2023-09-19T10:26:22;147287.69;;;22.51;50.94
14689;BME280;7432;48.728;9.154;2023-09-19T10:28:49;147243.72;;;22.32;50.69
14689;BME280;7432;48.728;9.154;2023-09-19T10:31:19;147279.13;;;22.47;51.12
14689;BME280;7432;48.728;9.154;2023-09-19T10:33:49;147231.50;;;22.27;50.54
14689;BME280;7432;48.728;9.154;2023-09-19T10:36:16;147292.56;;;22.53;49.97
14689;BME280;7432;48.728;9.154;2023-09-19T10:38:45;147318.25;;;22.63;51.77
14689;BME280;7432;48.728;9.154;2023-09-19T10:41:13;147382.97;;;22.90;50.43
14689;BME280;7432;48.728;9.154;2023-09-19T10:43:42;147392.75;;;22.94;50.49
14689;BME280;7432;48.728;9.154;2023-09-19T10:46:10;147378.09;;;22.88;49.27
14689;BME280;7432;48.728;9.154;2023-09-19T10:48:38;147315.78;;;22.62;49.27
14689;BME280;7432;48.728;9.154;2023-09-19T10:51:09;147304.78;;;22.58;49.65
14689;BME280;7432;48.728;9.154;2023-09-19T10:53:43;147274.25;;;22.45;50.23
14689;BME280;7432;48.728;9.154;2023-09-19T10:56:18;147242.53;;;22.32;49.72
14689;BME280;7432;48.728;9.154;2023-09-19T10:58:45;147233.97;;;22.28;49.27
14689;BME280;7432;48.728;9.154;2023-09-19T11:01:12;147220.53;;;22.23;50.16
14689;BME280;7432;48.728;9.154;2023-09-19T11:03:40;147244.94;;;22.33;50.24
14689;BME280;7432;48.728;9.154;2023-09-19T11:06:12;147226.66;;;22.25;50.33
14689;BME280;7432;48.728;9.154;2023-09-19T11:08:56;147247.41;;;22.34;50.68
14689;BME280;7432;48.728;9.154;2023-09-19T11:11:42;147262.06;;;22.40;49.42
14689;BME280;7432;48.728;9.154;2023-09-19T11:14:14;147237.63;;;22.30;50.67
14689;BME280;7432;48.728;9.154;2023-09-19T11:20:29;147168.06;;;22.01;51.42
14689;BME280;7432;48.728;9.154;2023-09-19T11:23:21;147190.03;;;22.10;51.34
14689;BME280;7432;48.728;9.154;2023-09-19T11:25:53;147185.13;;;22.08;50.18
14689;BME280;7432;48.728;9.154;2023-09-19T11:28:34;147199.78;;;22.14;50.51
14689;BME280;7432;48.728;9.154;2023-09-19T11:34:46;147185.13;;;22.08;51.33
14689;BME280;7432;48.728;9.154;2023-09-19T11:40:36;147303.53;;;22.57;50.01
14689;BME280;7432;48.728;9.154;2023-09-19T11:43:28;147393.97;;;22.94;50.97
14689;BME280;7432;48.728;9.154;2023-09-19T11:46:03;147393.97;;;22.94;48.56
14689;BME280;7432;48.728;9.154;2023-09-19T11:48:31;147408.59;;;23.00;49.04
14689;BME280;7432;48.728;9.154;2023-09-19T11:50:58;147407.41;;;23.00;49.06
14689;BME280;7432;48.728;9.154;2023-09-19T11:53:31;147326.81;;;22.67;49.90
14689;BME280;7432;48.728;9.154;2023-09-19T11:55:59;147318.25;;;22.63;49.94
14689;BME280;7432;48.728;9.154;2023-09-19T11:58:27;147279.13;;;22.47;50.87
14689;BME280;7432;48.728;9.154;2023-09-19T12:00:55;147265.69;;;22.41;50.82
14689;BME280;7432;48.728;9.154;2023-09-19T12:03:23;147253.50;;;22.36;51.03
14689;BME280;7432;48.728;9.154;2023-09-19T12:05:50;147247.41;;;22.34;51.69
14689;BME280;7432;48.728;9.154;2023-09-19T12:08:17;147281.59;;;22.48;52.33
14689;BME280;7432;48.728;9.154;2023-09-19T12:10:48;147340.25;;;22.72;50.16
14689;BME280;7432;48.728;9.154;2023-09-19T12:13:17;147330.44;;;22.68;49.37
14689;BME280;7432;48.728;9.154;2023-09-19T12:15:44;147401.31;;;22.97;50.03
14689;BME280;7432;48.728;9.154;2023-09-19T12:18:26;147395.22;;;22.95;49.96
14689;BME280;7432;48.728;9.154;2023-09-19T12:20:52;147404.97;;;22.99;48.94
14689;BME280;7432;48.728;9.154;2023-09-19T12:23:20;147391.53;;;22.93;49.59
14689;BME280;7432;48.728;9.154;2023-09-19T12:25:47;147430.59;;;23.10;50.51
14689;BME280;7432;48.728;9.154;2023-09-19T12:28:19;147404.97;;;22.99;49.74
14689;BME280;7432;48.728;9.154;2023-09-19T12:30:47;147382.97;;;22.90;49.87
14689;BME280;7432;48.728;9.154;2023-09-19T12:33:15;147362.25;;;22.81;50.34
14689;BME280;7432;48.728;9.154;2023-09-19T12:35:44;147307.22;;;22.59;51.32
14689;BME280;7432;48.728;9.154;2023-09-19T12:38:10;147260.84;;;22.39;52.02
14689;BME280;7432;48.728;9.154;2023-09-19T12:40:37;147262.06;;;22.40;51.16
14689;BME280;7432;48.728;9.154;2023-09-19T12:43:07;147249.81;;;22.35;51.50
14689;BME280;7432;48.728;9.154;2023-09-19T12:45:35;147236.44;;;22.29;52.38
14689;BME280;7432;48.728;9.154;2023-09-19T12:48:21;147231.50;;;22.27;52.82
14689;BME280;7432;48.728;9.154;2023-09-19T12:51:03;147205.88;;;22.17;52.98
14689;BME280;7432;48.728;9.154;2023-09-19T12:53:32;147177.78;;;22.05;51.29
14689;BME280;7432;48.728;9.154;2023-09-19T12:56:01;147197.31;;;22.13;52.73
14689;BME280;7432;48.728;9.154;2023-09-19T12:58:31;147233.97;;;22.28;52.39
14689;BME280;7432;48.728;9.154;2023-09-19T13:01:01;147257.16;;;22.38;52.17
14689;BME280;7432;48.728;9.154;2023-09-19T13:03:30;147225.41;;;22.25;52.55
14689;BME280;7432;48.728;9.154;2023-09-19T13:06:01;147219.31;;;22.22;52.08
14689;BME280;7432;48.728;9.154;2023-09-19T13:08:30;147211.97;;;22.19;53.18
14689;BME280;7432;48.728;9.154;2023-09-19T13:11:05;147252.28;;;22.36;50.94
14689;BME280;7432;48.728;9.154;2023-09-19T13:13:32;147286.47;;;22.50;51.46
14689;BME280;7432;48.728;9.154;2023-09-19T13:15:58;147286.47;;;22.50;50.50
14689;BME280;7432;48.728;9.154;2023-09-19T13:18:28;147243.72;;;22.32;51.80